Time;durP1;ratioP1;P1;durP2;ratioP2;P2;SDS_P1;SDS_P2;PMS_P1;PMS_P2;Temp;Humidity;BMP_temperature;BMP_pressure;BME280_temperature;BME280_humidity;BME280_pressure;Samples;Min_cycle;Max_cycle;Signal;HPM_P1;HPM_P2
2020/03/06 00:02:00;;;;;;;1.4;1.3;;;;;;;;;;;;;
2020/03/06 00:04:25;;;;;;;3.1;2.8;;;;;;;;;;;;;
2020/03/06 00:06:51;;;;;;;2.7;1.9;;;;;;;;;;;;;
2020/03/06 00:09:16;;;;;;;2.4;2.1;;;;;;;;;;;;;
2020/03/06 00:11:41;;;;;;;3.6;2.6;;;;;;;;;;;;;
2020/03/06 00:14:06;;;;;;;2.9;1.6;;;;;;;;;;;;;
2020/03/06 00:16:31;;;;;;;1.7;1.4;;;;;;;;;;;;;
2020/03/06 00:18:56;;;;;;;2.3;1.4;;;;;;;;;;;;;
2020/03/06 00:21:21;;;;;;;1.7;1.6;;;;;;;;;;;;;
2020/03/06 00:23:49;;;;;;;1.4;1.3;;;;;;;;;;;;;
2020/03/06 00:26:12;;;;;;;2.2;1.2;;;;;;;;;;;;;
2020/03/06 00:28:37;;;;;;;1.3;1.2;;;;;;;;;;;;;
2020/03/06 00:31:02;;;;;;;2.1;1.8;;;;;;;;;;;;;
2020/03/06 00:33:27;;;;;;;2.1;1.3;;;;;;;;;;;;;
2020/03/06 00:35:52;;;;;;;1.2;1.1;;;;;;;;;;;;;
2020/03/06 00:38:17;;;;;;;1.1;1;;;;;;;;;;;;;
2020/03/06 00:40:42;;;;;;;1.7;1.1;;;;;;;;;;;;;
2020/03/06 00:43:07;;;;;;;2.1;1.1;;;;;;;;;;;;;
2020/03/06 00:45:32;;;;;;;1.2;1.1;;;;;;;;;;;;;
2020/03/06 00:47:57;;;;;;;1.2;0.8;;;;;;;;;;;;;
2020/03/06 00:50:23;;;;;;;1.4;1;;;;;;;;;;;;;
2020/03/06 00:52:48;;;;;;;1;0.9;;;;;;;;;;;;;
2020/03/06 00:55:13;;;;;;;1.1;0.7;;;;;;;;;;;;;
2020/03/06 00:57:38;;;;;;;1.1;0.8;;;;;;;;;;;;;
2020/03/06 01:00:03;;;;;;;1.1;0.8;;;;;;;;;;;;;
2020/03/06 01:02:28;;;;;;;0.9;0.8;;;;;;;;;;;;;
2020/03/06 01:04:53;;;;;;;1.2;0.9;;;;;;;;;;;;;
2020/03/06 01:07:18;;;;;;;1.7;0.9;;;;;;;;;;;;;
2020/03/06 01:09:43;;;;;;;1.1;0.9;;;;;;;;;;;;;
2020/03/06 01:12:08;;;;;;;1.5;0.9;;;;;;;;;;;;;
2020/03/06 01:14:33;;;;;;;1.1;0.9;;;;;;;;;;;;;
2020/03/06 01:16:58;;;;;;;2.5;0.9;;;;;;;;;;;;;
2020/03/06 01:19:24;;;;;;;1.9;0.9;;;;;;;;;;;;;
2020/03/06 01:21:49;;;;;;;1;0.8;;;;;;;;;;;;;
2020/03/06 01:24:14;;;;;;;0.8;0.6;;;;;;;;;;;;;
2020/03/06 01:26:39;;;;;;;0.7;0.6;;;;;;;;;;;;;
2020/03/06 01:29:04;;;;;;;0.8;0.6;;;;;;;;;;;;;
2020/03/06 01:31:29;;;;;;;1.3;0.6;;;;;;;;;;;;;
2020/03/06 01:33:59;;;;;;;0.7;0.5;;;;;;;;;;;;;
2020/03/06 01:36:19;;;;;;;1.2;0.7;;;;;;;;;;;;;
2020/03/06 01:38:44;;;;;;;1;0.7;;;;;;;;;;;;;
2020/03/06 01:41:09;;;;;;;0.9;0.7;;;;;;;;;;;;;
2020/03/06 01:43:37;;;;;;;1.6;0.7;;;;;;;;;;;;;
2020/03/06 01:46:00;;;;;;;1.4;0.7;;;;;;;;;;;;;
2020/03/06 01:48:25;;;;;;;0.6;0.6;;;;;;;;;;;;;
2020/03/06 01:50:50;;;;;;;0.9;0.5;;;;;;;;;;;;;
2020/03/06 01:53:15;;;;;;;0.8;0.6;;;;;;;;;;;;;
2020/03/06 01:55:40;;;;;;;0.5;0.3;;;;;;;;;;;;;
2020/03/06 01:58:05;;;;;;;0.6;0.5;;;;;;;;;;;;;
2020/03/06 02:00:31;;;;;;;0.5;0.5;;;;;;;;;;;;;
2020/03/06 02:02:56;;;;;;;0.4;0.4;;;;;;;;;;;;;
2020/03/06 02:05:21;;;;;;;0.7;0.4;;;;;;;;;;;;;
2020/03/06 02:07:46;;;;;;;0.8;0.4;;;;;;;;;;;;;
2020/03/06 02:10:11;;;;;;;0.4;0.4;;;;;;;;;;;;;
2020/03/06 02:12:36;;;;;;;0.7;0.5;;;;;;;;;;;;;
2020/03/06 02:15:01;;;;;;;0.7;0.5;;;;;;;;;;;;;
2020/03/06 02:17:26;;;;;;;0.4;0.4;;;;;;;;;;;;;
2020/03/06 02:19:51;;;;;;;0.5;0.4;;;;;;;;;;;;;
2020/03/06 02:22:16;;;;;;;0.4;0.4;;;;;;;;;;;;;
2020/03/06 02:24:42;;;;;;;0.5;0.4;;;;;;;;;;;;;
2020/03/06 02:27:07;;;;;;;0.6;0.5;;;;;;;;;;;;;
2020/03/06 02:29:32;;;;;;;0.4;0.4;;;;;;;;;;;;;
2020/03/06 02:31:57;;;;;;;0.4;0.4;;;;;;;;;;;;;
2020/03/06 02:34:22;;;;;;;0.4;0.3;;;;;;;;;;;;;
2020/03/06 02:36:47;;;;;;;0.5;0.5;;;;;;;;;;;;;
2020/03/06 02:39:12;;;;;;;0.6;0.5;;;;;;;;;;;;;
2020/03/06 02:41:37;;;;;;;0.4;0.4;;;;;;;;;;;;;
2020/03/06 02:44:02;;;;;;;0.4;0.4;;;;;;;;;;;;;
2020/03/06 02:46:27;;;;;;;0.4;0.4;;;;;;;;;;;;;
2020/03/06 02:48:52;;;;;;;0.6;0.4;;;;;;;;;;;;;
2020/03/06 02:51:17;;;;;;;0.5;0.4;;;;;;;;;;;;;
2020/03/06 02:53:42;;;;;;;0.4;0.4;;;;;;;;;;;;;
2020/03/06 02:56:08;;;;;;;0.5;0.4;;;;;;;;;;;;;
2020/03/06 02:58:33;;;;;;;0.4;0.4;;;;;;;;;;;;;
2020/03/06 03:00:58;;;;;;;1.5;0.5;;;;;;;;;;;;;
2020/03/06 03:03:23;;;;;;;0.3;0.3;;;;;;;;;;;;;
2020/03/06 03:05:48;;;;;;;0.4;0.4;;;;;;;;;;;;;
2020/03/06 03:08:13;;;;;;;0.9;0.4;;;;;;;;;;;;;
2020/03/06 03:10:38;;;;;;;0.3;0.3;;;;;;;;;;;;;
2020/03/06 03:13:04;;;;;;;0.7;0.4;;;;;;;;;;;;;
2020/03/06 03:15:29;;;;;;;0.4;0.4;;;;;;;;;;;;;
2020/03/06 03:17:54;;;;;;;0.9;0.3;;;;;;;;;;;;;
2020/03/06 03:20:19;;;;;;;0.4;0.4;;;;;;;;;;;;;
2020/03/06 03:22:44;;;;;;;0.3;0.3;;;;;;;;;;;;;
2020/03/06 03:25:09;;;;;;;0.7;0.3;;;;;;;;;;;;;
2020/03/06 03:27:34;;;;;;;0.4;0.3;;;;;;;;;;;;;
2020/03/06 03:29:59;;;;;;;0.3;0.3;;;;;;;;;;;;;
2020/03/06 03:32:24;;;;;;;0.9;0.5;;;;;;;;;;;;;
2020/03/06 03:34:49;;;;;;;0.5;0.5;;;;;;;;;;;;;
2020/03/06 03:37:15;;;;;;;1.1;0.4;;;;;;;;;;;;;
2020/03/06 03:39:40;;;;;;;0.5;0.4;;;;;;;;;;;;;
2020/03/06 03:42:05;;;;;;;0.5;0.3;;;;;;;;;;;;;
2020/03/06 03:44:30;;;;;;;0.8;0.4;;;;;;;;;;;;;
2020/03/06 03:46:55;;;;;;;0.6;0.3;;;;;;;;;;;;;
2020/03/06 03:49:20;;;;;;;0.4;0.4;;;;;;;;;;;;;
2020/03/06 03:51:46;;;;;;;0.4;0.4;;;;;;;;;;;;;
2020/03/06 03:54:11;;;;;;;0.3;0.3;;;;;;;;;;;;;
2020/03/06 03:56:36;;;;;;;0.3;0.3;;;;;;;;;;;;;
2020/03/06 03:59:01;;;;;;;0.3;0.3;;;;;;;;;;;;;
2020/03/06 04:02:28;;;;;;;0.4;0.4;;;;;;;6.6;84.33984;935.8159;;;;
2020/03/06 04:04:53;;;;;;;0.4;0.4;;;;;;;6.66;84.47852;935.8374;;;;
2020/03/06 04:07:18;;;;;;;1.5;0.3;;;;;;;6.59;84.85352;935.8694;;;;
2020/03/06 04:09:43;;;;;;;0.4;0.3;;;;;;;6.65;83.72363;935.7665;;;;
2020/03/06 04:12:09;;;;;;;1;0.4;;;;;;;6.61;84.65137;935.748;;;;
2020/03/06 04:14:34;;;;;;;0.3;0.3;;;;;;;6.67;82.9502;935.8334;;;;
2020/03/06 04:16:59;;;;;;;0.3;0.3;;;;;;;6.7;82.58008;935.9238;;;;
2020/03/06 04:19:24;;;;;;;0.3;0.3;;;;;;;6.68;83.18164;935.8301;;;;
2020/03/06 04:21:49;;;;;;;0.4;0.3;;;;;;;6.7;82.55762;935.8809;;;;
2020/03/06 04:24:14;;;;;;;0.9;0.3;;;;;;;6.66;83.63379;935.7986;;;;
2020/03/06 04:26:39;;;;;;;0.3;0.3;;;;;;;6.68;82.99902;935.8544;;;;
2020/03/06 04:29:04;;;;;;;0.7;0.3;;;;;;;6.69;83.75488;935.8211;;;;
2020/03/06 04:31:29;;;;;;;0.5;0.3;;;;;;;6.78;80.46289;935.8118;;;;
2020/03/06 04:33:54;;;;;;;1.7;0.2;;;;;;;6.81;80.72949;935.8293;;;;
2020/03/06 04:36:19;;;;;;;0.9;0.3;;;;;;;6.78;81.05566;935.9235;;;;
2020/03/06 04:38:44;;;;;;;0.3;0.3;;;;;;;6.77;82.3418;935.9294;;;;
2020/03/06 04:41:10;;;;;;;0.3;0.3;;;;;;;6.78;80.37109;935.8506;;;;
2020/03/06 04:43:35;;;;;;;0.2;0.2;;;;;;;6.83;80.17578;935.9313;;;;
2020/03/06 04:46:00;;;;;;;0.7;0.2;;;;;;;6.84;79.66211;935.9208;;;;
2020/03/06 04:48:25;;;;;;;0.9;0.3;;;;;;;6.82;79.68164;935.9183;;;;
2020/03/06 04:50:50;;;;;;;0.5;0.3;;;;;;;6.84;79.87891;936.0552;;;;
2020/03/06 04:53:15;;;;;;;0.2;0.2;;;;;;;6.83;78.6123;936.116;;;;
2020/03/06 04:55:40;;;;;;;0.4;0.4;;;;;;;6.82;78.33691;936.0748;;;;
2020/03/06 04:58:05;;;;;;;0.7;0.3;;;;;;;6.81;77.94727;936.0154;;;;
2020/03/06 05:00:31;;;;;;;0.4;0.4;;;;;;;6.77;78.85254;936.1485;;;;
2020/03/06 05:02:56;;;;;;;1.6;0.5;;;;;;;6.81;77.78809;936.1677;;;;
2020/03/06 05:05:21;;;;;;;0.7;0.3;;;;;;;6.85;77.97852;936.0997;;;;
2020/03/06 05:07:46;;;;;;;0.5;0.4;;;;;;;6.78;78.20313;936.1517;;;;
2020/03/06 05:10:11;;;;;;;0.3;0.3;;;;;;;6.8;77.52441;936.1833;;;;
2020/03/06 05:12:36;;;;;;;1.2;0.4;;;;;;;6.75;77.89063;936.0361;;;;
2020/03/06 05:15:01;;;;;;;0.4;0.4;;;;;;;6.73;78.03613;936.144;;;;
2020/03/06 05:17:26;;;;;;;0.8;0.4;;;;;;;6.71;79.09375;936.0363;;;;
2020/03/06 05:19:52;;;;;;;0.9;0.4;;;;;;;6.73;78.28711;936.2703;;;;
2020/03/06 05:22:17;;;;;;;0.3;0.3;;;;;;;6.7;78.95313;936.3155;;;;
2020/03/06 05:24:43;;;;;;;1.3;0.5;;;;;;;6.62;79.52148;936.298;;;;
2020/03/06 05:27:08;;;;;;;1.9;0.9;;;;;;;6.64;79.85547;936.3588;;;;
2020/03/06 05:29:34;;;;;;;1.8;0.5;;;;;;;6.58;80.57324;936.3744;;;;
2020/03/06 05:31:59;;;;;;;1.2;0.4;;;;;;;6.63;80.58203;936.4995;;;;
2020/03/06 05:34:24;;;;;;;0.3;0.3;;;;;;;6.53;80.0957;936.5072;;;;
2020/03/06 05:36:49;;;;;;;0.8;0.4;;;;;;;6.53;79.98242;936.4838;;;;
2020/03/06 05:39:14;;;;;;;0.6;0.4;;;;;;;6.52;80.50488;936.4561;;;;
2020/03/06 05:41:40;;;;;;;0.5;0.4;;;;;;;6.5;80.45605;936.5105;;;;
2020/03/06 05:44:05;;;;;;;0.4;0.4;;;;;;;6.56;80.35352;936.5119;;;;
2020/03/06 05:46:31;;;;;;;0.4;0.4;;;;;;;6.52;79.72949;936.6141;;;;
2020/03/06 05:48:56;;;;;;;0.2;0.2;;;;;;;6.52;80.08301;936.7177;;;;
2020/03/06 05:51:21;;;;;;;0.8;0.4;;;;;;;6.48;79.91699;936.8049;;;;
2020/03/06 05:53:46;;;;;;;0.3;0.3;;;;;;;6.49;80.43164;936.6894;;;;
2020/03/06 05:56:11;;;;;;;1.3;0.4;;;;;;;6.51;79.63867;936.8072;;;;
2020/03/06 05:58:37;;;;;;;0.4;0.4;;;;;;;6.54;79.38086;936.8298;;;;
2020/03/06 06:01:02;;;;;;;0.6;0.3;;;;;;;6.57;79.63672;936.973;;;;
2020/03/06 06:03:27;;;;;;;0.3;0.3;;;;;;;6.51;78.41699;936.8906;;;;
2020/03/06 06:05:52;;;;;;;0.5;0.4;;;;;;;6.57;79.40723;936.9431;;;;
2020/03/06 06:08:17;;;;;;;0.5;0.3;;;;;;;6.59;78.71484;936.9495;;;;
2020/03/06 06:10:42;;;;;;;0.5;0.3;;;;;;;6.51;78.71484;936.8833;;;;
2020/03/06 06:13:07;;;;;;;0.8;0.4;;;;;;;6.5;78.6543;936.8607;;;;
2020/03/06 06:15:32;;;;;;;0.3;0.3;;;;;;;6.5;77.42188;936.9636;;;;
2020/03/06 06:17:57;;;;;;;1;0.5;;;;;;;6.51;77.08301;936.9019;;;;
2020/03/06 06:20:22;;;;;;;1.1;0.6;;;;;;;6.45;77.21973;936.9303;;;;
2020/03/06 06:22:47;;;;;;;0.7;0.6;;;;;;;6.46;77.42676;936.9998;;;;
2020/03/06 06:25:12;;;;;;;0.4;0.4;;;;;;;6.4;76.93652;937.0153;;;;
2020/03/06 06:27:37;;;;;;;0.3;0.3;;;;;;;6.36;76.79492;936.8958;;;;
2020/03/06 06:30:03;;;;;;;0.4;0.3;;;;;;;6.44;77.02441;937.0867;;;;
2020/03/06 06:32:28;;;;;;;0.3;0.3;;;;;;;6.35;77.625;937.022;;;;
2020/03/06 06:34:53;;;;;;;0.6;0.3;;;;;;;6.38;77.78809;937.0277;;;;
2020/03/06 06:37:18;;;;;;;0.5;0.3;;;;;;;6.36;77.42188;937.1247;;;;
2020/03/06 06:39:43;;;;;;;1.1;0.3;;;;;;;6.35;78.06934;937.0722;;;;
2020/03/06 06:42:08;;;;;;;1.2;0.4;;;;;;;6.36;78.04883;937.0826;;;;
2020/03/06 06:44:33;;;;;;;0.5;0.3;;;;;;;6.34;77.89551;937.1774;;;;
2020/03/06 06:46:58;;;;;;;0.8;0.3;;;;;;;6.37;78.13965;937.141;;;;
2020/03/06 06:49:23;;;;;;;0.7;0.4;;;;;;;6.35;78.25195;937.111;;;;
2020/03/06 06:51:49;;;;;;;1;0.5;;;;;;;6.34;78.72754;937.1432;;;;
2020/03/06 06:54:14;;;;;;;0.3;0.3;;;;;;;6.3;79.5166;937.1838;;;;
2020/03/06 06:56:39;;;;;;;1.3;0.4;;;;;;;6.29;79.02539;937.1006;;;;
2020/03/06 06:59:04;;;;;;;0.6;0.3;;;;;;;6.23;78.98145;937.074;;;;
2020/03/06 07:01:29;;;;;;;0.7;0.4;;;;;;;6.26;79.02051;937.0627;;;;
2020/03/06 07:03:55;;;;;;;0.8;0.3;;;;;;;6.22;79.0459;937.2769;;;;
2020/03/06 07:06:20;;;;;;;0.5;0.5;;;;;;;6.1;80.4375;937.3505;;;;
2020/03/06 07:08:46;;;;;;;1.1;0.7;;;;;;;6.12;80.54297;937.3174;;;;
2020/03/06 07:11:11;;;;;;;1;0.9;;;;;;;6.06;80.28223;937.319;;;;
2020/03/06 07:13:39;;;;;;;1.9;1.5;;;;;;;6.08;80.65039;937.3021;;;;
2020/03/06 07:16:01;;;;;;;1;0.7;;;;;;;6.11;80.49609;937.2787;;;;
2020/03/06 07:18:27;;;;;;;1.3;0.7;;;;;;;6.12;80.70215;937.1727;;;;
2020/03/06 07:20:52;;;;;;;2.6;2.1;;;;;;;6.13;79.9082;937.335;;;;
2020/03/06 07:23:17;;;;;;;1.1;0.5;;;;;;;6.06;79.40332;937.4467;;;;
2020/03/06 07:25:42;;;;;;;0.5;0.5;;;;;;;6.18;78.96191;937.2704;;;;
2020/03/06 07:28:07;;;;;;;1;0.3;;;;;;;6.29;79.04785;937.2228;;;;
2020/03/06 07:30:32;;;;;;;1.8;0.9;;;;;;;6.33;77.89355;937.3083;;;;
2020/03/06 07:32:57;;;;;;;1.8;1.1;;;;;;;6.35;77.76172;937.2161;;;;
2020/03/06 07:35:23;;;;;;;2.8;1.2;;;;;;;6.39;77.08496;937.5711;;;;
2020/03/06 07:37:48;;;;;;;1.7;0.7;;;;;;;6.39;76.91406;937.3324;;;;
2020/03/06 07:40:14;;;;;;;3.5;1.7;;;;;;;6.6;76.7793;937.4365;;;;
2020/03/06 07:42:39;;;;;;;1.9;0.9;;;;;;;6.59;75.52246;937.4431;;;;
2020/03/06 07:45:05;;;;;;;1.7;1.1;;;;;;;6.56;75.81543;937.5596;;;;
2020/03/06 07:47:30;;;;;;;0.6;0.3;;;;;;;6.51;76.63965;937.5676;;;;
2020/03/06 07:49:56;;;;;;;0.5;0.4;;;;;;;6.66;76.12793;937.5618;;;;
2020/03/06 07:52:21;;;;;;;0.8;0.4;;;;;;;6.58;75.85254;937.5539;;;;
2020/03/06 07:54:46;;;;;;;0.8;0.5;;;;;;;6.61;75.50293;937.4995;;;;
2020/03/06 07:57:12;;;;;;;0.9;0.6;;;;;;;6.58;75.48633;937.8555;;;;
2020/03/06 07:59:37;;;;;;;1.1;0.4;;;;;;;6.55;75.32227;937.6649;;;;
2020/03/06 08:02:02;;;;;;;0.6;0.4;;;;;;;6.64;75.59961;937.7454;;;;
2020/03/06 08:04:28;;;;;;;0.3;0.3;;;;;;;6.61;74.52344;937.8217;;;;
2020/03/06 08:06:53;;;;;;;0.9;0.2;;;;;;;6.61;74.61426;937.9949;;;;
2020/03/06 08:09:18;;;;;;;0.4;0.3;;;;;;;6.54;75.22949;937.8638;;;;
2020/03/06 08:11:44;;;;;;;1.4;0.4;;;;;;;6.69;75.71094;938.0424;;;;
2020/03/06 08:14:09;;;;;;;0.3;0.3;;;;;;;6.67;74.8418;937.9945;;;;
2020/03/06 08:16:34;;;;;;;0.5;0.3;;;;;;;6.72;75.02148;938.0212;;;;
2020/03/06 08:19:00;;;;;;;0.5;0.4;;;;;;;6.77;74.42578;938.0666;;;;
2020/03/06 08:21:25;;;;;;;0.3;0.3;;;;;;;6.73;74.5791;938.0883;;;;
2020/03/06 08:23:50;;;;;;;0.5;0.3;;;;;;;6.83;74.19727;938.0381;;;;
2020/03/06 08:26:15;;;;;;;1;0.4;;;;;;;6.83;73.75195;938.1522;;;;
2020/03/06 08:28:41;;;;;;;0.5;0.5;;;;;;;6.79;73.20703;938.2079;;;;
2020/03/06 08:31:06;;;;;;;0.9;0.3;;;;;;;6.75;74.33105;938.1944;;;;
2020/03/06 08:33:32;;;;;;;0.4;0.2;;;;;;;6.83;73.45508;938.1878;;;;
2020/03/06 08:35:57;;;;;;;0.3;0.3;;;;;;;6.85;73.18457;938.2947;;;;
2020/03/06 08:38:23;;;;;;;2.6;0.4;;;;;;;7.01;73.45215;938.2392;;;;
2020/03/06 08:40:48;;;;;;;1.4;0.4;;;;;;;7.11;72.47559;938.3483;;;;
2020/03/06 08:43:13;;;;;;;0.5;0.3;;;;;;;7.05;72.55664;938.2706;;;;
2020/03/06 08:45:38;;;;;;;0.3;0.3;;;;;;;6.89;72.91699;938.4095;;;;
2020/03/06 08:48:03;;;;;;;0.7;0.3;;;;;;;6.87;72.7998;938.4313;;;;
2020/03/06 08:50:28;;;;;;;0.6;0.3;;;;;;;6.91;73.35352;938.3689;;;;
2020/03/06 08:52:53;;;;;;;0.4;0.3;;;;;;;6.96;73.125;938.5081;;;;
2020/03/06 08:55:18;;;;;;;0.3;0.3;;;;;;;6.96;72.48535;938.4919;;;;
2020/03/06 08:57:44;;;;;;;0.4;0.2;;;;;;;7.08;73.01855;938.4796;;;;
2020/03/06 09:00:09;;;;;;;0.6;0.3;;;;;;;7.05;73.08008;938.6076;;;;
2020/03/06 09:02:35;;;;;;;0.7;0.3;;;;;;;6.93;72.50098;938.6135;;;;
2020/03/06 09:05:02;;;;;;;1.1;0.3;;;;;;;6.92;72.69336;938.7778;;;;
2020/03/06 09:07:25;;;;;;;0.4;0.2;;;;;;;6.84;73.83398;938.6863;;;;
2020/03/06 09:09:50;;;;;;;0.8;0.3;;;;;;;6.86;73.00391;938.8152;;;;
2020/03/06 09:12:15;;;;;;;0.6;0.2;;;;;;;6.75;73.06543;938.8192;;;;
2020/03/06 09:14:40;;;;;;;0.5;0.2;;;;;;;6.61;73.75781;938.6824;;;;
2020/03/06 09:17:05;;;;;;;1.1;0.3;;;;;;;6.76;73.78516;938.6995;;;;
2020/03/06 09:19:30;;;;;;;0.4;0.3;;;;;;;6.72;73.58496;938.7859;;;;
2020/03/06 09:21:56;;;;;;;0.4;0.4;;;;;;;6.71;73.53711;938.7804;;;;
2020/03/06 09:24:21;;;;;;;0.9;0.7;;;;;;;6.86;73.18652;938.8142;;;;
2020/03/06 09:26:46;;;;;;;0.9;0.6;;;;;;;6.76;74.17383;938.8525;;;;
2020/03/06 09:29:11;;;;;;;0.4;0.3;;;;;;;6.8;74.0332;938.858;;;;
2020/03/06 09:31:36;;;;;;;1.1;0.3;;;;;;;6.97;74.12891;938.8092;;;;
2020/03/06 09:34:01;;;;;;;0.2;0.2;;;;;;;6.81;74.75195;938.9673;;;;
2020/03/06 09:36:27;;;;;;;0.4;0.3;;;;;;;6.77;74.3457;938.9244;;;;
2020/03/06 09:38:52;;;;;;;0.3;0.3;;;;;;;6.8;73.73438;938.9366;;;;
2020/03/06 09:41:17;;;;;;;0.3;0.2;;;;;;;6.83;73.51074;938.9658;;;;
2020/03/06 09:43:43;;;;;;;0.4;0.3;;;;;;;6.98;73.60547;939.0239;;;;
2020/03/06 09:46:08;;;;;;;1.1;0.3;;;;;;;6.84;73.30859;938.9883;;;;
2020/03/06 09:48:34;;;;;;;0.3;0.3;;;;;;;6.88;72.39258;939.1342;;;;
2020/03/06 09:50:59;;;;;;;0.2;0.2;;;;;;;7.04;72.01855;939.0942;;;;
2020/03/06 09:53:24;;;;;;;0.7;0.3;;;;;;;7.19;71.57715;939.0818;;;;
2020/03/06 09:55:49;;;;;;;0.8;0.3;;;;;;;6.83;71.77832;939.1583;;;;
2020/03/06 09:58:14;;;;;;;1.3;0.3;;;;;;;6.93;71.82715;939.1219;;;;
2020/03/06 10:00:39;;;;;;;0.4;0.3;;;;;;;7.15;72.04785;939.1992;;;;
2020/03/06 10:03:05;;;;;;;0.9;0.3;;;;;;;7.24;71.39063;939.2966;;;;
2020/03/06 10:05:30;;;;;;;0.3;0.3;;;;;;;7.3;70.52148;939.2333;;;;
2020/03/06 10:07:56;;;;;;;0.3;0.3;;;;;;;7.17;71.28711;939.5046;;;;
2020/03/06 10:10:21;;;;;;;0.9;0.5;;;;;;;7.02;71.99219;939.2813;;;;
2020/03/06 10:12:46;;;;;;;0.3;0.3;;;;;;;7.08;71.82031;939.5006;;;;
2020/03/06 10:15:11;;;;;;;0.5;0.4;;;;;;;6.8;71.94336;939.5032;;;;
2020/03/06 10:17:36;;;;;;;0.3;0.2;;;;;;;7.04;71.96094;939.615;;;;
2020/03/06 10:20:02;;;;;;;0.6;0.3;;;;;;;6.94;71.91016;939.6981;;;;
2020/03/06 10:22:27;;;;;;;0.7;0.4;;;;;;;6.9;71.54883;939.6537;;;;
2020/03/06 10:24:52;;;;;;;0.5;0.3;;;;;;;6.82;71.0918;939.8837;;;;
2020/03/06 10:27:17;;;;;;;0.2;0.2;;;;;;;6.73;71.75;939.8042;;;;
2020/03/06 10:29:42;;;;;;;0.4;0.2;;;;;;;6.77;70.66113;939.8811;;;;
2020/03/06 10:32:08;;;;;;;0.9;0.4;;;;;;;6.8;71.39746;939.9888;;;;
2020/03/06 10:34:33;;;;;;;0.3;0.3;;;;;;;6.89;71.2627;939.8571;;;;
2020/03/06 10:36:59;;;;;;;0.4;0.3;;;;;;;6.93;70.49414;940.009;;;;
2020/03/06 10:39:24;;;;;;;0.3;0.3;;;;;;;6.92;70.12598;939.9533;;;;
2020/03/06 10:41:49;;;;;;;1.4;0.4;;;;;;;7.1;70.44141;940.087;;;;
2020/03/06 10:44:14;;;;;;;0.2;0.2;;;;;;;7.14;69.67285;940.0083;;;;
2020/03/06 10:46:39;;;;;;;0.9;0.4;;;;;;;7.06;69.66016;940.2408;;;;
2020/03/06 10:49:04;;;;;;;0.8;0.4;;;;;;;7.1;69.9834;940.1802;;;;
2020/03/06 10:51:30;;;;;;;0.4;0.3;;;;;;;6.88;70.32715;940.1622;;;;
2020/03/06 10:53:55;;;;;;;0.7;0.4;;;;;;;7.01;70.60938;940.1534;;;;
2020/03/06 10:56:20;;;;;;;0.5;0.3;;;;;;;6.88;69.84766;940.0352;;;;
2020/03/06 10:58:46;;;;;;;0.9;0.3;;;;;;;6.78;69.76172;940.1942;;;;
2020/03/06 11:01:11;;;;;;;1.2;0.4;;;;;;;6.94;70.66602;940.2286;;;;
2020/03/06 11:03:36;;;;;;;0.8;0.6;;;;;;;7.09;69.94922;940.3058;;;;
2020/03/06 11:06:01;;;;;;;0.8;0.5;;;;;;;7.04;69.25586;940.3387;;;;
2020/03/06 11:08:26;;;;;;;0.5;0.4;;;;;;;7.08;68.64648;940.3329;;;;
2020/03/06 11:10:51;;;;;;;1.3;0.3;;;;;;;7.13;68.88184;940.3105;;;;
2020/03/06 11:13:17;;;;;;;0.4;0.4;;;;;;;7.05;68.80176;940.3119;;;;
2020/03/06 11:15:42;;;;;;;0.4;0.4;;;;;;;7.02;68.70508;940.308;;;;
2020/03/06 11:18:08;;;;;;;0.9;0.5;;;;;;;7.16;68.13281;940.3592;;;;
2020/03/06 11:20:33;;;;;;;1.1;0.3;;;;;;;7.29;67.20605;940.2537;;;;
2020/03/06 11:22:58;;;;;;;0.8;0.5;;;;;;;7.32;67.09766;940.3728;;;;
2020/03/06 11:25:23;;;;;;;0.4;0.4;;;;;;;7.26;67.72559;940.5041;;;;
2020/03/06 11:27:48;;;;;;;1.1;0.4;;;;;;;7.31;68.12305;940.5058;;;;
2020/03/06 11:30:13;;;;;;;0.8;0.6;;;;;;;7.3;68.52148;940.5278;;;;
2020/03/06 11:32:38;;;;;;;1.9;0.7;;;;;;;7.03;69.03711;940.483;;;;
2020/03/06 11:35:03;;;;;;;0.7;0.6;;;;;;;7.13;69.27051;940.4384;;;;
2020/03/06 11:37:28;;;;;;;1.4;1;;;;;;;7.04;69.95215;940.4473;;;;
2020/03/06 11:39:54;;;;;;;1.5;1;;;;;;;7.11;69.55273;940.4707;;;;
2020/03/06 11:42:19;;;;;;;0.9;0.7;;;;;;;7.16;68.44141;940.4094;;;;
2020/03/06 11:44:51;;;;;;;1.5;0.8;;;;;;;7.16;69.30859;940.4952;;;;
2020/03/06 11:47:10;;;;;;;1.8;0.8;;;;;;;7.23;68.62402;940.585;;;;
2020/03/06 11:49:36;;;;;;;1.1;0.6;;;;;;;7.22;68.57813;940.4669;;;;
2020/03/06 11:52:01;;;;;;;1.2;0.6;;;;;;;7.54;67.63379;940.4977;;;;
2020/03/06 11:54:26;;;;;;;0.8;0.5;;;;;;;7.38;67.89453;940.5527;;;;
2020/03/06 11:56:51;;;;;;;1;0.4;;;;;;;7.42;68.03711;940.4724;;;;
2020/03/06 11:59:16;;;;;;;1.1;0.5;;;;;;;7.46;68.16992;940.616;;;;
2020/03/06 12:01:41;;;;;;;0.6;0.5;;;;;;;7.59;67.27637;940.4991;;;;
2020/03/06 12:04:06;;;;;;;1.2;0.5;;;;;;;7.57;67.28418;940.7385;;;;
2020/03/06 12:06:31;;;;;;;1.2;0.4;;;;;;;7.49;67.4541;940.6322;;;;
2020/03/06 12:08:56;;;;;;;0.5;0.4;;;;;;;7.77;66.69824;940.5499;;;;
2020/03/06 12:11:21;;;;;;;0.9;0.6;;;;;;;7.62;66.94922;940.6563;;;;
2020/03/06 12:13:47;;;;;;;1.7;0.6;;;;;;;8.05;66.13574;940.6453;;;;
2020/03/06 12:16:12;;;;;;;0.7;0.5;;;;;;;7.94;66.3252;940.6836;;;;
2020/03/06 12:18:37;;;;;;;0.7;0.5;;;;;;;7.7;66.78906;940.5883;;;;
2020/03/06 12:21:02;;;;;;;1.6;0.4;;;;;;;7.72;66.67871;940.5997;;;;
2020/03/06 12:23:27;;;;;;;2.3;0.6;;;;;;;7.49;67.04297;940.6662;;;;
2020/03/06 12:25:53;;;;;;;3.3;0.7;;;;;;;7.69;67.2002;940.6816;;;;
2020/03/06 12:28:18;;;;;;;0.5;0.4;;;;;;;7.61;67.18848;940.6969;;;;
2020/03/06 12:30:44;;;;;;;0.7;0.4;;;;;;;7.35;67.78711;940.7633;;;;
2020/03/06 12:33:09;;;;;;;0.7;0.3;;;;;;;7.32;67.74707;940.8427;;;;
2020/03/06 12:35:35;;;;;;;1;0.4;;;;;;;7.3;67.4834;940.7942;;;;
2020/03/06 12:38:00;;;;;;;0.7;0.5;;;;;;;7.24;68.23828;940.8979;;;;
2020/03/06 12:40:25;;;;;;;1.1;0.4;;;;;;;7.15;68.24707;940.8314;;;;
2020/03/06 12:42:50;;;;;;;1.5;0.5;;;;;;;7.24;68.31836;940.8501;;;;
2020/03/06 12:45:15;;;;;;;2.7;0.8;;;;;;;7.3;68.53223;940.8879;;;;
2020/03/06 12:47:41;;;;;;;0.7;0.5;;;;;;;7.07;68.74609;940.9688;;;;
2020/03/06 12:50:06;;;;;;;2;0.5;;;;;;;7.05;68.87012;941.0002;;;;
2020/03/06 12:52:32;;;;;;;0.6;0.4;;;;;;;7.11;69.16504;941.0142;;;;
2020/03/06 12:54:57;;;;;;;0.6;0.4;;;;;;;7.05;68.88086;941.0278;;;;
2020/03/06 12:57:23;;;;;;;0.5;0.4;;;;;;;6.94;68.86328;940.9871;;;;
2020/03/06 12:59:48;;;;;;;2;0.5;;;;;;;6.95;69.04688;941.073;;;;
2020/03/06 13:02:13;;;;;;;0.8;0.5;;;;;;;7.03;69.01465;941.0795;;;;
2020/03/06 13:04:39;;;;;;;1.8;0.6;;;;;;;7.04;69.24414;941.0886;;;;
2020/03/06 13:07:04;;;;;;;2;0.5;;;;;;;7.01;69.47852;941.1696;;;;
2020/03/06 13:09:29;;;;;;;0.8;0.5;;;;;;;6.95;69.08203;941.1337;;;;
2020/03/06 13:11:54;;;;;;;0.8;0.5;;;;;;;7.1;69.59668;941.1705;;;;
2020/03/06 13:14:20;;;;;;;1.3;0.6;;;;;;;7.07;69.00879;941.087;;;;
2020/03/06 13:16:45;;;;;;;1;0.6;;;;;;;7.07;68.89648;941.1121;;;;
2020/03/06 13:19:11;;;;;;;1.4;0.7;;;;;;;7.07;68.89453;941.147;;;;
2020/03/06 13:21:36;;;;;;;2.3;0.6;;;;;;;7.11;68.91309;941.2361;;;;
2020/03/06 13:26:22;;;;;;;1.7;0.6;;;;;;;7.09;68.41992;941.177;;;;
2020/03/06 13:28:47;;;;;;;1.8;0.5;;;;;;;7.17;68.23828;941.3203;;;;
2020/03/06 13:31:12;;;;;;;1.2;0.6;;;;;;;7.11;68.4209;941.3;;;;
2020/03/06 13:33:37;;;;;;;2.3;0.6;;;;;;;7.05;68.77637;941.3461;;;;
2020/03/06 13:36:02;;;;;;;1.3;0.6;;;;;;;7.02;68.5;941.4124;;;;
2020/03/06 13:38:27;;;;;;;1.4;0.6;;;;;;;7.13;68.90527;941.3755;;;;
2020/03/06 13:40:52;;;;;;;0.8;0.6;;;;;;;7.08;69.43262;941.4433;;;;
2020/03/06 13:43:17;;;;;;;1.2;0.6;;;;;;;7.07;68.4043;941.4109;;;;
2020/03/06 13:45:42;;;;;;;1.4;0.6;;;;;;;7.01;69.19434;941.4991;;;;
2020/03/06 13:48:07;;;;;;;2.3;0.7;;;;;;;7.03;68.72949;941.46;;;;
2020/03/06 13:50:33;;;;;;;2.4;0.8;;;;;;;6.88;70.53027;941.4458;;;;
2020/03/06 13:52:58;;;;;;;1.1;0.7;;;;;;;6.97;69.94043;941.4796;;;;
2020/03/06 13:55:23;;;;;;;1;0.6;;;;;;;6.95;70.1084;941.4608;;;;
2020/03/06 13:57:48;;;;;;;1;0.7;;;;;;;6.8;70.69043;941.5753;;;;
2020/03/06 14:00:13;;;;;;;1.8;0.7;;;;;;;6.75;70.80664;941.4228;;;;
2020/03/06 14:02:38;;;;;;;2.7;0.8;;;;;;;6.79;70.56152;941.538;;;;
2020/03/06 14:05:03;;;;;;;1.1;0.6;;;;;;;6.86;70.33398;941.5017;;;;
2020/03/06 14:07:28;;;;;;;1.2;0.7;;;;;;;6.98;70.4209;941.5605;;;;
2020/03/06 14:09:53;;;;;;;2.8;0.9;;;;;;;6.95;70.25684;941.541;;;;
2020/03/06 14:12:18;;;;;;;2.2;0.8;;;;;;;6.98;69.76074;941.6431;;;;
2020/03/06 14:14:43;;;;;;;1.3;0.6;;;;;;;6.89;69.81348;941.7108;;;;
2020/03/06 14:17:08;;;;;;;1;0.7;;;;;;;6.95;70.44141;941.7344;;;;
2020/03/06 14:19:34;;;;;;;1;0.7;;;;;;;6.91;70.20508;941.8008;;;;
2020/03/06 14:21:59;;;;;;;1.7;0.8;;;;;;;6.75;70.45313;941.7781;;;;
2020/03/06 14:24:24;;;;;;;1.1;0.7;;;;;;;6.81;71.33984;941.7775;;;;
2020/03/06 14:26:49;;;;;;;0.9;0.6;;;;;;;6.65;72.48926;941.8643;;;;
2020/03/06 14:29:14;;;;;;;1.5;0.8;;;;;;;6.57;72.50977;941.8711;;;;
2020/03/06 14:31:39;;;;;;;2.6;0.8;;;;;;;6.58;73.17285;941.9094;;;;
2020/03/06 14:34:04;;;;;;;1.6;0.9;;;;;;;6.6;73.80371;941.9578;;;;
2020/03/06 14:36:30;;;;;;;2.5;1;;;;;;;6.46;74.23438;941.8785;;;;
2020/03/06 14:38:55;;;;;;;2.2;0.8;;;;;;;6.58;76.08105;942.0129;;;;
2020/03/06 14:41:21;;;;;;;2.1;1;;;;;;;6.38;76.2832;941.9794;;;;
2020/03/06 14:43:46;;;;;;;1.1;0.9;;;;;;;6.52;77.03906;942.1563;;;;
2020/03/06 14:46:11;;;;;;;2.4;1;;;;;;;6.22;78.53516;941.9962;;;;
2020/03/06 14:48:36;;;;;;;1.6;0.9;;;;;;;6.13;78.17578;942.0697;;;;
2020/03/06 14:51:01;;;;;;;1.9;1;;;;;;;6.17;78.75293;942.0628;;;;
2020/03/06 14:53:26;;;;;;;1.1;0.7;;;;;;;6.2;79.21387;942.135;;;;
2020/03/06 14:55:51;;;;;;;1.7;1;;;;;;;6.04;78.99023;942.1426;;;;
2020/03/06 14:58:16;;;;;;;1.3;0.9;;;;;;;5.97;79.95801;942.269;;;;
2020/03/06 15:00:41;;;;;;;2.5;1;;;;;;;6.13;79.52148;942.2629;;;;
2020/03/06 15:03:06;;;;;;;1.7;1;;;;;;;6.06;80.28027;942.2391;;;;
2020/03/06 15:05:31;;;;;;;2.7;1.1;;;;;;;6.18;80.50977;942.1606;;;;
2020/03/06 15:07:57;;;;;;;2.1;1.1;;;;;;;6.05;78.01465;942.2333;;;;
2020/03/06 15:10:22;;;;;;;1.9;1.1;;;;;;;6.21;79.7627;942.2733;;;;
2020/03/06 15:12:47;;;;;;;2.1;1;;;;;;;6.12;78.8916;942.2548;;;;
2020/03/06 15:15:12;;;;;;;2.2;1.1;;;;;;;6.11;79.4248;942.4651;;;;
2020/03/06 15:17:37;;;;;;;3.2;1.4;;;;;;;6.09;79.97949;942.4001;;;;
2020/03/06 15:20:02;;;;;;;2.8;2.2;;;;;;;6.1;80.53027;942.4753;;;;
2020/03/06 15:22:27;;;;;;;2.8;1.2;;;;;;;5.93;81.64648;942.5622;;;;
2020/03/06 15:24:52;;;;;;;3;1.3;;;;;;;5.93;81.00879;942.5072;;;;
2020/03/06 15:27:17;;;;;;;3.2;2.3;;;;;;;5.97;80.75488;942.5276;;;;
2020/03/06 15:29:42;;;;;;;2.8;1.6;;;;;;;6.02;80.86816;942.592;;;;
2020/03/06 15:32:07;;;;;;;1.8;1;;;;;;;6.02;80.77637;942.6358;;;;
2020/03/06 15:34:32;;;;;;;1.9;1.1;;;;;;;6.15;80.36719;942.5906;;;;
2020/03/06 15:36:58;;;;;;;3.1;1.1;;;;;;;6.11;80.19922;942.588;;;;
2020/03/06 15:39:23;;;;;;;2.2;1.1;;;;;;;6.06;80.51953;942.8583;;;;